createdAt,value
2023-03-22T00:02:11.827Z,59.54
2023-03-22T00:04:42.589Z,59.47
2023-03-22T00:07:11.371Z,59.61
2023-03-22T00:09:40.315Z,59.20
2023-03-22T00:12:08.934Z,59.25
2023-03-22T00:14:37.803Z,60.16
2023-03-22T00:17:06.505Z,60.33
2023-03-22T00:19:34.328Z,60.12
2023-03-22T00:22:03.715Z,61.13
2023-03-22T00:24:33.665Z,61.40
2023-03-22T00:27:02.551Z,60.90
2023-03-22T00:29:31.330Z,61.12
2023-03-22T00:31:59.071Z,61.43
2023-03-22T00:34:31.649Z,61.09
2023-03-22T00:36:59.791Z,62.36
2023-03-22T00:39:27.698Z,62.58
2023-03-22T00:41:55.498Z,62.52
2023-03-22T00:44:24.117Z,62.43
2023-03-22T00:46:51.051Z,62.49
2023-03-22T00:49:18.959Z,62.41
2023-03-22T00:51:45.952Z,62.14
2023-03-22T00:54:13.695Z,62.82
2023-03-22T00:56:40.496Z,62.90
2023-03-22T00:59:08.146Z,62.41
2023-03-22T01:01:34.967Z,62.39
2023-03-22T01:04:03.156Z,61.96
2023-03-22T01:06:31.424Z,62.15
2023-03-22T01:08:59.222Z,62.06
2023-03-22T01:11:26.888Z,61.53
2023-03-22T01:13:55.884Z,61.05
2023-03-22T01:16:23.995Z,60.59
2023-03-22T01:18:51.799Z,60.44
2023-03-22T01:21:19.717Z,60.85
2023-03-22T01:23:46.875Z,61.18
2023-03-22T01:26:13.949Z,61.74
2023-03-22T01:28:41.892Z,61.04
2023-03-22T01:31:09.736Z,61.30
2023-03-22T01:33:36.884Z,61.06
2023-03-22T01:36:05.049Z,61.10
2023-03-22T01:38:32.929Z,60.88
2023-03-22T01:41:00.783Z,60.55
2023-03-22T01:43:27.870Z,61.48
2023-03-22T01:45:55.327Z,61.94
2023-03-22T01:48:42.096Z,61.85
2023-03-22T01:51:25.465Z,62.50
2023-03-22T01:53:57.569Z,64.00
2023-03-22T01:56:28.305Z,63.26
2023-03-22T01:58:56.716Z,64.09
2023-03-22T02:01:25.270Z,63.83
2023-03-22T02:04:03.865Z,64.12
2023-03-22T02:06:32.529Z,64.68
2023-03-22T02:08:59.541Z,64.44
2023-03-22T02:11:35.182Z,64.36
2023-03-22T02:14:09.740Z,64.23
2023-03-22T02:17:04.160Z,64.04
2023-03-22T02:19:48.094Z,63.42
2023-03-22T02:22:53.293Z,62.63
2023-03-22T02:25:20.464Z,64.41
2023-03-22T02:28:01.323Z,63.58
2023-03-22T02:30:38.288Z,63.80
2023-03-22T02:33:15.055Z,64.57
2023-03-22T02:36:01.434Z,63.81
2023-03-22T02:38:57.847Z,63.32
2023-03-22T02:41:35.460Z,64.32
2023-03-22T02:44:27.220Z,63.48
2023-03-22T02:47:04.870Z,63.95
2023-03-22T02:49:43.054Z,63.27
2023-03-22T02:52:26.146Z,64.72
2023-03-22T02:55:04.573Z,64.17
2023-03-22T02:57:41.057Z,65.08
2023-03-22T03:00:16.236Z,64.46
2023-03-22T03:03:00.196Z,65.26
2023-03-22T03:05:31.201Z,64.27
2023-03-22T03:08:02.975Z,64.03
2023-03-22T03:10:30.646Z,64.56
2023-03-22T03:12:59.394Z,66.43
2023-03-22T03:15:27.288Z,65.90
2023-03-22T03:18:13.855Z,66.32
2023-03-22T03:21:01.285Z,66.93
2023-03-22T03:23:47.194Z,67.07
2023-03-22T03:29:54.766Z,68.76
2023-03-22T03:32:38.839Z,69.22
2023-03-22T03:35:23.252Z,67.98
2023-03-22T03:38:03.546Z,66.67
2023-03-22T03:40:35.834Z,67.15
2023-03-22T03:43:06.480Z,68.09
2023-03-22T03:45:37.508Z,68.00
2023-03-22T03:48:09.344Z,67.20
2023-03-22T03:50:38.169Z,68.51
2023-03-22T03:53:05.860Z,68.60
2023-03-22T03:55:33.896Z,68.45
2023-03-22T03:58:00.971Z,68.78
2023-03-22T04:00:28.430Z,68.89
2023-03-22T04:02:55.473Z,69.47
2023-03-22T04:05:23.270Z,68.81
2023-03-22T04:07:51.106Z,67.93
2023-03-22T04:10:18.299Z,69.17
2023-03-22T04:12:45.770Z,69.90
2023-03-22T04:15:13.976Z,68.78
2023-03-22T04:17:41.445Z,69.78
2023-03-22T04:20:11.262Z,68.75
2023-03-22T04:22:38.802Z,67.92
2023-03-22T04:25:13.528Z,69.00
2023-03-22T04:27:42.405Z,69.87
2023-03-22T04:30:20.298Z,69.31
2023-03-22T04:32:48.218Z,68.59
2023-03-22T04:35:16.965Z,67.76
2023-03-22T04:37:45.776Z,69.03
2023-03-22T04:40:16.676Z,68.66
2023-03-22T04:42:44.941Z,69.71
2023-03-22T04:45:13.162Z,69.53
2023-03-22T04:47:40.481Z,69.51
2023-03-22T04:50:09.421Z,70.55
2023-03-22T04:52:37.267Z,72.44
2023-03-22T04:55:04.984Z,71.05
2023-03-22T04:57:31.961Z,71.11
2023-03-22T04:59:58.851Z,69.45
2023-03-22T05:02:25.809Z,68.82
2023-03-22T05:04:52.671Z,67.65
2023-03-22T05:07:20.742Z,67.32
2023-03-22T05:09:47.954Z,66.41
2023-03-22T05:12:14.896Z,66.07
2023-03-22T05:14:42.680Z,65.67
2023-03-22T05:17:11.252Z,65.62
2023-03-22T05:19:38.470Z,67.82
2023-03-22T05:22:05.752Z,70.77
2023-03-22T05:24:33.606Z,71.70
2023-03-22T05:27:01.323Z,71.56
2023-03-22T05:29:29.054Z,71.63
2023-03-22T05:31:56.389Z,72.02
2023-03-22T05:34:24.646Z,71.82
2023-03-22T05:36:52.141Z,73.10
2023-03-22T05:39:20.606Z,73.44
2023-03-22T05:41:47.863Z,73.01
2023-03-22T05:44:15.734Z,72.71
2023-03-22T05:46:42.798Z,71.06
2023-03-22T05:49:12.180Z,71.17
2023-03-22T05:51:41.622Z,71.32
2023-03-22T05:54:09.879Z,71.58
2023-03-22T05:56:37.440Z,70.48
2023-03-22T05:59:04.989Z,70.14
2023-03-22T06:01:33.776Z,70.33
2023-03-22T06:04:00.912Z,70.41
2023-03-22T06:06:28.513Z,70.28
2023-03-22T06:09:06.974Z,69.50
2023-03-22T06:11:41.378Z,68.50
2023-03-22T06:14:08.342Z,67.45
2023-03-22T06:16:36.316Z,66.81
2023-03-22T06:19:03.483Z,66.62
2023-03-22T06:21:30.734Z,66.62
2023-03-22T06:23:57.881Z,66.44
2023-03-22T06:26:26.038Z,66.01
2023-03-22T06:28:53.696Z,66.32
2023-03-22T06:31:20.978Z,66.49
2023-03-22T06:33:48.160Z,66.52
2023-03-22T06:36:15.042Z,65.79
2023-03-22T06:38:42.899Z,65.09
2023-03-22T06:41:10.713Z,66.67
2023-03-22T06:43:37.508Z,66.24
2023-03-22T06:46:04.673Z,66.42
2023-03-22T06:48:32.372Z,65.66
2023-03-22T06:51:01.008Z,65.28
2023-03-22T06:53:28.899Z,65.28
2023-03-22T06:55:55.864Z,65.09
2023-03-22T06:58:23.777Z,64.74
2023-03-22T07:00:52.356Z,64.57
2023-03-22T07:03:20.124Z,64.47
2023-03-22T07:05:47.122Z,64.04
2023-03-22T07:08:14.809Z,63.54
2023-03-22T07:10:43.889Z,63.39
2023-03-22T07:13:11.616Z,62.56
2023-03-22T07:15:38.500Z,62.09
2023-03-22T07:18:07.752Z,61.82
2023-03-22T07:20:41.692Z,61.64
2023-03-22T07:23:10.913Z,61.77
2023-03-22T07:25:38.658Z,60.90
2023-03-22T07:28:07.143Z,60.26
2023-03-22T07:30:38.136Z,60.63
2023-03-22T07:33:07.477Z,61.02
2023-03-22T07:35:36.989Z,61.81
2023-03-22T07:38:05.279Z,61.14
2023-03-22T07:40:33.165Z,61.11
2023-03-22T07:43:00.033Z,60.67
2023-03-22T07:45:27.871Z,60.48
2023-03-22T07:47:55.852Z,59.62
2023-03-22T07:50:23.633Z,59.23
2023-03-22T07:52:50.519Z,58.29
2023-03-22T07:55:18.405Z,59.01
2023-03-22T07:57:46.535Z,58.60
2023-03-22T08:00:14.815Z,58.16
2023-03-22T08:02:45.866Z,57.54
2023-03-22T08:05:12.950Z,57.36
2023-03-22T08:07:39.893Z,56.91
2023-03-22T08:10:08.236Z,56.10
2023-03-22T08:12:35.205Z,56.20
2023-03-22T08:15:03.219Z,56.15
2023-03-22T08:17:31.327Z,56.02
2023-03-22T08:19:58.237Z,55.69
2023-03-22T08:22:29.676Z,55.55
2023-03-22T08:24:56.647Z,55.56
2023-03-22T08:27:24.454Z,54.18
2023-03-22T08:29:51.682Z,54.37
2023-03-22T08:32:19.588Z,54.04
2023-03-22T08:34:47.333Z,53.27
2023-03-22T08:37:15.172Z,52.95
2023-03-22T08:39:44.320Z,53.08
2023-03-22T08:42:11.107Z,52.33
2023-03-22T08:44:38.122Z,51.46
2023-03-22T08:47:05.108Z,50.96
2023-03-22T08:49:33.221Z,50.41
2023-03-22T08:52:01.060Z,49.46
2023-03-22T08:54:33.736Z,48.79
2023-03-22T08:57:03.392Z,48.46
2023-03-22T08:59:31.161Z,47.14
2023-03-22T09:01:58.941Z,46.74
2023-03-22T09:04:27.391Z,47.20
2023-03-22T09:06:54.133Z,47.19
2023-03-22T09:09:21.893Z,46.25
2023-03-22T09:11:48.801Z,47.43
2023-03-22T09:14:15.953Z,46.11
2023-03-22T09:16:43.644Z,44.88
2023-03-22T09:19:11.889Z,44.76
2023-03-22T09:21:39.678Z,44.96
2023-03-22T09:24:07.617Z,43.55
2023-03-22T09:26:34.673Z,43.85
2023-03-22T09:29:02.617Z,44.49
2023-03-22T09:31:29.490Z,45.86
2023-03-22T09:33:56.407Z,45.02
2023-03-22T09:36:24.143Z,44.57
2023-03-22T09:38:50.915Z,43.12
2023-03-22T09:41:41.765Z,42.04
2023-03-22T09:44:16.075Z,41.41
2023-03-22T09:46:48.262Z,40.12
2023-03-22T09:49:25.008Z,38.83
2023-03-22T09:51:54.166Z,40.37
2023-03-22T09:54:35.462Z,40.29
2023-03-22T09:57:26.752Z,39.10
2023-03-22T10:00:14.849Z,38.57
2023-03-22T10:02:45.569Z,42.62
2023-03-22T10:05:23.626Z,40.73
2023-03-22T10:08:20.849Z,42.18
2023-03-22T10:10:49.287Z,39.46
2023-03-22T10:13:44.373Z,39.26
2023-03-22T10:16:18.621Z,38.88
2023-03-22T10:18:51.554Z,36.84
2023-03-22T10:21:20.866Z,37.48
2023-03-22T10:23:54.902Z,37.69
2023-03-22T10:26:32.160Z,35.15
2023-03-22T10:29:04.250Z,35.23
2023-03-22T10:31:34.194Z,36.48
2023-03-22T10:34:17.229Z,35.42
2023-03-22T10:36:46.743Z,36.81
2023-03-22T10:39:26.537Z,35.57
2023-03-22T10:42:00.535Z,34.89
2023-03-22T10:44:34.848Z,35.73
2023-03-22T10:47:08.271Z,35.71
2023-03-22T10:49:45.642Z,34.04
2023-03-22T10:52:31.360Z,33.36
2023-03-22T10:55:04.201Z,33.75
2023-03-22T10:57:31.492Z,33.64
2023-03-22T10:59:58.844Z,34.90
2023-03-22T11:02:31.619Z,34.04
2023-03-22T11:05:02.541Z,34.58
2023-03-22T11:07:36.533Z,34.18
2023-03-22T11:10:09.469Z,33.61
2023-03-22T11:12:39.994Z,31.42
2023-03-22T11:15:19.648Z,32.09
2023-03-22T11:17:46.671Z,31.28
2023-03-22T11:20:19.283Z,31.37
2023-03-22T11:22:48.287Z,31.25
2023-03-22T11:25:29.360Z,31.52
2023-03-22T11:28:05.618Z,29.79
2023-03-22T11:30:34.018Z,30.41
2023-03-22T11:33:00.965Z,28.99
2023-03-22T11:35:31.103Z,28.86
2023-03-22T11:37:59.585Z,27.86
2023-03-22T11:40:30.375Z,28.49
2023-03-22T11:43:03.499Z,28.89
2023-03-22T11:45:37.893Z,28.84
2023-03-22T11:48:10.092Z,27.93
2023-03-22T11:50:41.926Z,28.83
2023-03-22T11:53:17.637Z,29.45
2023-03-22T11:55:47.582Z,29.14
2023-03-22T11:58:40.070Z,29.23
2023-03-22T12:01:12.866Z,28.73
2023-03-22T12:03:43.869Z,28.42
2023-03-22T12:06:22.995Z,27.59
2023-03-22T12:08:59.155Z,27.69
2023-03-22T12:11:46.912Z,27.63
2023-03-22T12:14:17.446Z,27.87
2023-03-22T12:16:50.377Z,28.02
2023-03-22T12:19:31.316Z,27.34
2023-03-22T12:21:59.840Z,27.40
2023-03-22T12:24:31.459Z,27.41
2023-03-22T12:27:10.240Z,27.79
2023-03-22T12:29:44.514Z,28.86
2023-03-22T12:32:32.642Z,28.49
2023-03-22T12:35:18.032Z,28.62
2023-03-22T12:37:54.497Z,28.21
2023-03-22T12:40:26.689Z,27.40
2023-03-22T12:43:16.559Z,28.38
2023-03-22T12:45:49.330Z,29.48
2023-03-22T12:48:21.145Z,30.03
2023-03-22T12:50:56.519Z,29.92
2023-03-22T12:53:30.780Z,30.22
2023-03-22T12:56:00.151Z,29.81
2023-03-22T12:58:28.000Z,29.13
2023-03-22T13:01:01.361Z,28.25
2023-03-22T13:03:44.231Z,28.19
2023-03-22T13:06:35.134Z,28.03
2023-03-22T13:09:17.333Z,29.08
2023-03-22T13:12:05.936Z,30.19
2023-03-22T13:14:58.446Z,28.81
2023-03-22T13:17:26.244Z,29.00
2023-03-22T13:20:11.503Z,28.98
2023-03-22T13:22:39.021Z,28.69
2023-03-22T13:25:23.814Z,29.43
2023-03-22T13:28:12.769Z,27.82
2023-03-22T13:30:58.242Z,27.28
2023-03-22T13:33:29.522Z,28.04
2023-03-22T13:36:08.535Z,27.72
2023-03-22T13:38:42.175Z,26.95
2023-03-22T13:41:12.814Z,27.42
2023-03-22T13:43:40.392Z,27.29
2023-03-22T13:46:08.366Z,28.40
2023-03-22T13:48:42.012Z,27.51
2023-03-22T13:51:13.770Z,26.45
2023-03-22T13:53:47.574Z,26.76
2023-03-22T13:56:49.857Z,26.38
2023-03-22T13:59:23.515Z,27.39
2023-03-22T14:02:18.873Z,28.26
2023-03-22T14:04:56.205Z,27.95
2023-03-22T14:07:26.364Z,28.20
2023-03-22T14:10:00.708Z,27.83
2023-03-22T14:12:37.440Z,28.09
2023-03-22T14:15:07.461Z,28.75
2023-03-22T14:18:03.387Z,27.45
2023-03-22T14:20:37.293Z,27.25
